createdAt,value
2019-04-01T00:00:48.124Z,47.20
2019-04-01T00:06:03.731Z,47.40
2019-04-01T00:11:19.406Z,47.50
2019-04-01T00:16:35.119Z,47.60
2019-04-01T00:21:50.541Z,47.70
2019-04-01T00:27:06.025Z,47.80
2019-04-01T00:32:21.675Z,47.80
2019-04-01T00:37:37.498Z,47.90
2019-04-01T00:43:01.043Z,47.90
2019-04-01T00:48:16.669Z,48.00
2019-04-01T00:53:32.702Z,48.10
2019-04-01T00:58:48.700Z,48.10
2019-04-01T01:04:04.588Z,48.30
2019-04-01T01:09:20.208Z,48.40
2019-04-01T01:14:36.083Z,48.30
2019-04-01T01:19:51.814Z,48.50
2019-04-01T01:25:07.549Z,48.60
2019-04-01T01:30:23.327Z,48.60
2019-04-01T01:35:38.984Z,48.80
2019-04-01T01:40:55.066Z,48.70
2019-04-01T01:46:11.045Z,48.90
2019-04-01T01:51:26.987Z,49.00
2019-04-01T01:56:42.544Z,49.00
2019-04-01T02:01:58.197Z,49.20
2019-04-01T02:07:14.261Z,49.20
2019-04-01T02:12:29.832Z,49.30
2019-04-01T02:17:45.389Z,49.30
2019-04-01T02:23:00.810Z,49.40
2019-04-01T02:28:16.562Z,49.40
2019-04-01T02:33:32.436Z,49.60
2019-04-01T02:38:48.394Z,49.60
2019-04-01T02:44:03.983Z,49.70
2019-04-01T02:49:19.559Z,49.80
2019-04-01T02:54:35.299Z,49.80
2019-04-01T02:59:50.910Z,49.90
2019-04-01T03:05:06.409Z,50.00
2019-04-01T03:10:22.114Z,50.10
2019-04-01T03:15:37.788Z,50.70
2019-04-01T03:20:53.246Z,50.20
2019-04-01T03:26:09.720Z,50.30
2019-04-01T03:31:25.775Z,50.30
2019-04-01T03:36:42.714Z,50.40
2019-04-01T03:41:59.886Z,50.40
2019-04-01T03:47:15.898Z,50.50
2019-04-01T03:52:31.775Z,50.70
2019-04-01T03:57:47.414Z,50.70
2019-04-01T04:03:02.999Z,50.70
2019-04-01T04:08:19.195Z,50.80
2019-04-01T04:13:35.857Z,50.90
2019-04-01T04:18:51.318Z,50.90
2019-04-01T04:24:07.246Z,51.00
2019-04-01T04:29:24.004Z,51.00
2019-04-01T04:34:41.147Z,51.20
2019-04-01T04:39:59.487Z,51.20
2019-04-01T04:45:15.298Z,51.20
2019-04-01T04:50:31.205Z,51.30
2019-04-01T04:55:47.316Z,51.40
2019-04-01T05:01:03.026Z,51.40
2019-04-01T05:06:18.935Z,51.50
2019-04-01T05:11:34.813Z,51.70
2019-04-01T05:16:50.392Z,51.70
2019-04-01T05:22:06.347Z,52.30
2019-04-01T05:27:26.446Z,51.70
2019-04-01T05:32:42.729Z,51.90
2019-04-01T05:37:58.599Z,52.00
2019-04-01T05:43:14.293Z,52.20
2019-04-01T05:48:32.083Z,52.10
2019-04-01T05:53:48.665Z,52.20
2019-04-01T05:59:04.221Z,52.40
2019-04-01T06:04:19.770Z,52.40
2019-04-01T06:09:35.456Z,52.60
2019-04-01T06:14:51.149Z,52.70
2019-04-01T06:20:07.070Z,52.80
2019-04-01T06:25:22.767Z,53.10
2019-04-01T06:30:38.750Z,53.10
2019-04-01T06:35:55.745Z,53.40
2019-04-01T06:41:11.611Z,53.60
2019-04-01T06:46:27.557Z,53.60
2019-04-01T06:51:43.501Z,53.80
2019-04-01T06:56:59.147Z,54.00
2019-04-01T07:02:15.094Z,54.10
2019-04-01T07:07:30.880Z,54.40
2019-04-01T07:12:46.655Z,54.50
2019-04-01T07:18:02.545Z,54.60
2019-04-01T07:23:18.391Z,54.90
2019-04-01T07:28:34.195Z,55.00
2019-04-01T07:33:50.099Z,55.30
2019-04-01T07:39:07.083Z,55.60
2019-04-01T07:44:23.376Z,55.60
2019-04-01T07:49:39.161Z,55.80
2019-04-01T07:54:58.830Z,56.00
2019-04-01T08:00:15.848Z,56.20
2019-04-01T08:05:31.969Z,56.30
2019-04-01T08:10:47.913Z,56.50
2019-04-01T08:16:03.573Z,56.80
2019-04-01T08:21:19.038Z,56.90
2019-04-01T08:26:34.871Z,57.20
2019-04-01T08:31:50.944Z,60.80
2019-04-01T08:37:06.827Z,60.50
2019-04-01T08:42:22.574Z,60.70
2019-04-01T08:47:38.513Z,61.50
2019-04-01T08:52:54.542Z,61.30
2019-04-01T08:58:10.647Z,61.90
2019-04-01T09:03:26.100Z,63.60
2019-04-01T09:08:43.424Z,63.30
2019-04-01T09:13:59.521Z,63.00
2019-04-01T09:19:15.354Z,63.10
2019-04-01T09:24:31.055Z,62.90
2019-04-01T09:29:46.963Z,62.80
2019-04-01T09:35:02.645Z,63.30
2019-04-01T09:40:18.525Z,63.10
2019-04-01T09:45:34.318Z,62.90
2019-04-01T09:50:49.778Z,61.90
2019-04-01T09:56:05.622Z,61.50
2019-04-01T10:01:21.360Z,61.80
2019-04-01T10:06:37.388Z,61.20
2019-04-01T10:11:53.397Z,60.30
2019-04-01T10:17:10.881Z,60.50
2019-04-01T10:22:26.742Z,60.50
2019-04-01T10:27:42.739Z,60.50
2019-04-01T10:33:01.759Z,60.20
2019-04-01T10:38:15.531Z,59.80
2019-04-01T10:43:31.296Z,59.70
2019-04-01T10:48:47.289Z,59.10
2019-04-01T10:54:06.808Z,59.20
2019-04-01T10:59:22.877Z,59.10
2019-04-01T11:04:38.748Z,57.80
2019-04-01T11:09:54.771Z,57.40
2019-04-01T11:15:15.643Z,57.70
2019-04-01T11:20:30.746Z,56.20
2019-04-01T11:25:46.401Z,56.10
2019-04-01T11:31:02.386Z,55.80
2019-04-01T11:36:21.235Z,55.20
2019-04-01T11:41:37.071Z,55.20
2019-04-01T11:46:53.579Z,54.60
2019-04-01T11:52:09.502Z,54.20
2019-04-01T11:57:25.615Z,54.20
2019-04-01T12:02:41.790Z,53.50
2019-04-01T12:07:57.500Z,53.40
2019-04-01T12:13:13.210Z,53.30
2019-04-01T12:18:28.988Z,53.20
2019-04-01T12:23:44.513Z,52.70
2019-04-01T12:29:00.237Z,52.20
2019-04-01T12:34:16.909Z,51.80
2019-04-01T12:39:33.781Z,51.50
2019-04-01T12:44:49.486Z,50.90
2019-04-01T12:50:05.674Z,51.50
2019-04-01T12:55:21.373Z,49.70
2019-04-01T13:00:37.059Z,49.00
2019-04-01T13:05:53.258Z,49.50
2019-04-01T13:11:10.048Z,50.40
2019-04-01T13:16:25.831Z,50.00
2019-04-01T13:21:41.564Z,48.90
2019-04-01T13:26:57.329Z,48.40
2019-04-01T13:32:12.953Z,48.10
2019-04-01T13:37:28.582Z,47.70
2019-04-01T13:42:45.772Z,46.90
2019-04-01T13:48:01.247Z,47.30
2019-04-01T13:53:17.010Z,46.90
2019-04-01T13:58:32.773Z,46.70
2019-04-01T14:03:48.728Z,46.60
2019-04-01T14:09:06.427Z,46.10
2019-04-01T14:14:23.741Z,47.10
2019-04-01T14:19:39.436Z,47.30
2019-04-01T14:24:55.263Z,46.90
2019-04-01T14:30:11.293Z,47.20
2019-04-01T14:35:28.537Z,47.10
2019-04-01T14:40:46.456Z,46.60
2019-04-01T14:46:03.005Z,47.40
2019-04-01T14:51:18.786Z,48.00
2019-04-01T14:56:37.737Z,47.50
2019-04-01T15:01:53.279Z,47.40
2019-04-01T15:07:09.129Z,46.50
2019-04-01T15:12:24.807Z,45.80
2019-04-01T15:17:40.814Z,46.90
2019-04-01T15:22:56.650Z,46.50
2019-04-01T15:28:13.080Z,46.10
2019-04-01T15:33:29.240Z,46.50
2019-04-01T15:38:44.838Z,46.50
2019-04-01T15:44:00.501Z,47.10
2019-04-01T15:49:24.771Z,47.00
2019-04-01T15:54:40.588Z,46.30
2019-04-01T15:59:57.269Z,46.70
2019-04-01T16:05:13.017Z,47.00
2019-04-01T16:10:29.497Z,47.30
2019-04-01T16:15:45.463Z,47.40
2019-04-01T16:21:04.508Z,48.10
2019-04-01T16:26:20.337Z,47.70
2019-04-01T16:31:36.486Z,47.80
2019-04-01T16:36:54.870Z,47.90
2019-04-01T16:42:12.552Z,48.50
2019-04-01T16:47:28.130Z,49.10
2019-04-01T16:52:44.027Z,49.50
2019-04-01T16:57:59.682Z,49.50
2019-04-01T17:03:16.647Z,49.30
2019-04-01T17:08:39.161Z,48.90
2019-04-01T17:13:55.962Z,48.30
2019-04-01T17:19:18.033Z,47.70
2019-04-01T17:24:33.586Z,47.00
2019-04-01T17:29:51.308Z,46.30
2019-04-01T17:35:07.213Z,45.20
2019-04-01T17:40:23.089Z,45.20
2019-04-01T17:45:41.755Z,45.00
2019-04-01T17:50:58.111Z,44.50
2019-04-01T18:01:43.669Z,44.10
2019-04-01T18:06:59.397Z,43.90
2019-04-01T18:12:15.923Z,43.70
2019-04-01T18:17:34.919Z,43.60
2019-04-01T18:22:52.811Z,43.80
2019-04-01T18:28:13.077Z,43.50
2019-04-01T18:33:39.371Z,43.40
2019-04-01T18:38:55.757Z,43.30
2019-04-01T18:44:13.075Z,43.30
2019-04-01T18:49:29.238Z,43.20
2019-04-01T18:54:45.260Z,43.10
2019-04-01T19:00:00.839Z,43.20
2019-04-01T19:05:19.492Z,43.20
2019-04-01T19:10:39.080Z,43.10
2019-04-01T19:15:53.774Z,43.10
2019-04-01T19:21:10.172Z,43.10
2019-04-01T19:26:27.367Z,43.10
2019-04-01T19:31:43.322Z,43.20
2019-04-01T19:36:59.336Z,43.10
2019-04-01T19:42:15.062Z,43.10
2019-04-01T19:47:34.166Z,43.10
2019-04-01T19:52:52.412Z,43.20
2019-04-01T19:58:08.363Z,43.10
2019-04-01T20:03:25.375Z,43.30
2019-04-01T20:08:41.671Z,43.30
2019-04-01T20:14:00.699Z,43.40
2019-04-01T20:19:16.822Z,43.50
2019-04-01T20:24:33.653Z,43.50
2019-04-01T20:29:57.552Z,43.10
2019-04-01T20:35:23.826Z,43.70
2019-04-01T20:40:36.203Z,43.80
2019-04-01T20:45:52.974Z,43.80
2019-04-01T20:51:25.887Z,44.00
2019-04-01T20:56:45.169Z,44.20
2019-04-01T21:02:01.056Z,44.00
2019-04-01T21:07:18.424Z,44.10
2019-04-01T21:12:45.691Z,44.20
2019-04-01T21:17:59.997Z,44.30
2019-04-01T21:23:16.478Z,44.30
2019-04-01T21:28:32.731Z,44.50
2019-04-01T21:33:48.617Z,44.50
2019-04-01T21:39:08.006Z,44.50
2019-04-01T21:44:23.853Z,44.60
2019-04-01T21:49:39.595Z,44.70
2019-04-01T21:54:59.002Z,44.80
2019-04-01T22:00:28.639Z,44.80
2019-04-01T22:06:01.109Z,44.90
2019-04-01T22:11:19.840Z,45.00
2019-04-01T22:16:39.350Z,45.00
2019-04-01T22:21:57.090Z,45.20
2019-04-01T22:27:17.334Z,45.40
2019-04-01T22:32:36.749Z,45.30
2019-04-01T22:38:03.517Z,45.40
2019-04-01T22:43:19.780Z,45.50
2019-04-01T22:48:35.454Z,45.50
2019-04-01T22:53:51.432Z,45.60
2019-04-01T22:59:07.867Z,45.70
2019-04-01T23:04:26.708Z,45.90
2019-04-01T23:09:44.393Z,45.90
2019-04-01T23:15:01.727Z,45.90
2019-04-01T23:20:19.992Z,46.00
2019-04-01T23:25:35.757Z,46.10
2019-04-01T23:30:51.827Z,46.10
2019-04-01T23:36:07.783Z,46.30
2019-04-01T23:41:24.780Z,46.30
2019-04-01T23:46:54.526Z,46.30
2019-04-01T23:52:13.603Z,46.50
2019-04-01T23:57:29.172Z,47.10
